Cadillac, MI (49601)

3:50 PM EDT on September 02, 2015 (GMT -0400)
MesoWest | | Change Station
CLOSE
Current Station
Personal Weather Station
Location: Cadillac, MI
Elevation: 1351 ft
Nearby Weather Stations

Elev 1351 ft 44.25 °N, 85.37 °W | Updated 40 minutes ago

Scattered Clouds
Scattered Clouds
86 °F
Feels Like 92 °F
N
6
Wind Variable Wind from North
Gusts 12.0 mph

Today
High -- | Low -- °F
--% Chance of Precip.
Yesterday
High -- | Low -- °F
Precip. -- in
7:05 AM 8:16 PM
Waning Gibbous, 78% visible
Pressure 30.00 in
Visibility 10.0 miles
Clouds Scattered Clouds 3500 ft
Heat Index 92 °F
Dew Point 72 °F
Humidity 63%
Rainfall in
Snow Depth Not available.
UV 5 out of 12
Pollen 10.10 out of 12
Air Quality Not available.
Flu Activity Not available.
METAR KCAD 021935Z AUTO 24009G15KT 10SM SCT035 31/22 A3000 RMK AO2 T03100219
Pressure 30.00 in
Visibility 10.0 miles
Clouds Scattered Clouds 3500 ft
Heat Index 92 °F
Dew Point 72 °F
Humidity 63%
Rainfall in
Snow Depth Not available.
UV 5 out of 12
Pollen 10.10 out of 12
Air Quality Not available.
Flu Activity Not available.
METAR KCAD 021935Z AUTO 24009G15KT 10SM SCT035 31/22 A3000 RMK AO2 T03100219
Nowcast | as of 3:00 PM EDT on September 2, 2015

At 4 PM...partly cloudy. Scattered thunderstorms. Temperature 85. Northwest winds 8 mph. At 6 PM...partly cloudy. Scattered thunderstorms. Temperature 83. West winds 7 mph. At 8 PM...partly cloudy. Isolated thunderstorms. Temperature 77. Northwest winds 5 mph. At 10 PM...partly cloudy. Slight chance of thunderstorms. Temperature 73. Light winds.

×

10-Day Weather Forecast

×

Almanac

Astronomy

Sep. 02, 2015 Rise Set
Actual Time
Civil Twilight
Nautical Twilight
Astronomical Twilight
Moon
Length of Visible Light
Length of Day
Tomorrow will be .
, % of the Moon is Illuminated

Today's Extremes

State Highs State Lows

Community

WunderPhotos

Upload Photos

1,851,801 photos uploaded!

WunderBlogs® & News

Nearby

Air Quality

  Air Quality AQ Index Pollutant
Not available.

Snow Depth

Station Depth Elevation

Earthquake Activity

City Distance Mag. Time & Date
Minimum magnitude displayed is 2.5.

Coastal Water Temperatures

Place Temperature

Stations

Nearby Weather Stations

Station Location Temp. Windchill Dew Point Humidity Wind Precip. Elev Updated Type